Bom Jesus do Barracao, Brazil
Current Conditions -  °F | °C
As of 10:00 AM on Monday 22 Dec 2014 (Local Time) from SARI Reporting Station
Broken Clouds Broken Clouds  
Wind Chill: 72°   Ceiling: 20000
Heat Index: 72°   Visibility: 6mi
Dew Point: 66°   Wind: 14mph
Humidity: 83%   Direction: 180°S
Pressure: 29.88"   Gusts: NA
Location:  26.2°S, 53.62°W
Report Text: SARI 221200Z 18012KT 9999 FEW015 BKN20022/19 Q1012
Loading
Personal Weather Stations






























Interactive Weather Map New forecast layout! Learn more

10-Day Weather Forecast

Advertisements
Track Severe Weather on mobile